Orange, Ohio
Current Conditions -  °F | °C
As of 3:45 PM on Tuesday 25 Nov 2014 (Local Time) from KCGF Reporting Station
Overcast Overcast  
Wind Chill: 28°   Ceiling: 3000
Heat Index: 37°   Visibility: 7mi
Dew Point: 27°   Wind: 16mph
Humidity: 65%   Direction: 280°W
Pressure: 30.08"   Gusts: 25mph
Location:  41.4475°N, 81.4018°W
Report Text: KCGF 252045Z 28014G22KT 7SM SCT014 OVC030 03/M03 A3008
Loading
Personal Weather Stations






























Interactive Weather Map New forecast layout! Learn more

10-Day Weather Forecast

Advertisements
Track Severe Weather on mobile